Scott AFB/Midamerica Airport
KBLV : rendu visible

Aérodrome :











RETROUVEZ-NOUS SUR...

 
LOGIN :

S'inscrire | Disclaimer

   EN    FR    IT 

 









Légende :    VFR   VFR Marginal   IFR   IFR Intensif   IFR Très Intensif
Visi : 
Plafond : 
>= 8 km
>= 3000ft
5 à 8 km
1000 à 3000 ft
1500m à 5 km
500 à 1000 ft
800 à 1500m
200 à 500 ft
< 800m
< 200 ft
Symboles :   Orages  Brouillard  Fortes neiges  Fortes précipitations  Vent > 20 kt






- Altitude de l'aérodrome : 459 ft


KBLV - Scott AFB/Midamerica

DERNIER METAR :
  • 281322Z COR 00000KT 5SM -SN OVC011 M02/M03 A3013 RMK CIG 009 RWY14R CIG 005 RWY32L SLP211 $ COR 1329

METARs EXPIRÉS :
  • 281256Z 00000KT 2SM -SN BR BKN004 OVC012 M02/M03 A3013 RMK CIG 005 RWY14L CIG 007 RWY14R CIG 006 RWY32L SLP211 P0000 T10181029 $
  • 281223Z 00000KT 2SM -SN BR BKN002 BKN007 OVC011 M02/M03 A3013 RMK SLP211 $
  • 281156Z AUTO 04003KT 4SM -SN OVC004 M02/M03 A3012 RMK AO2 SLP208 P0000 60000 T10171028 11013 21018 53003 $
  • 281151Z AUTO 05003KT 5SM -SN OVC005 M02/M03 A3012 RMK AO2 OVC V BKN SLP208 $
  • 281129Z 03004KT 2SM -SN BR BKN005 OVC009 M02/M03 A3011 RMK CIG 005V009 SLP204 $
  • 281056Z 36005KT 4SM -SN BR BKN005 OVC009 M02/M03 A3011 RMK AO2A SLP204 P0000 T10171033 $

TAF TAF KBLV
Valide du 28 à 08h jusqu'au 29 à 14h UTC


280800Z 2808/2914 VRB06KT 4800 -FZDZ BR OVC004 660004 QNH3011INS
BECMG 2808/2810 VRB06KT 4800 BR OVC004 650044 QNH3011INS
BECMG 2813/2814 VRB06KT 9000 BR FEW007 BKN010 650103 QNH3010INS
BECMG 2900/2901 VRB06KT 4800 BR SCT007 OVC015 650152 QNH3009INS
BECMG 2912/2913 VRB06KT 9000 -SN BKN007 650079 QNH3014INS TX02/2821Z TNM02/2808Z



MET'MAP, la Météo Aéronautique d'un coup d'oeil ! - Copyright ORBIFLY Décembre 2007 - Disclaimer

ORBIFLY MET'MAP TEAM :

Programmation & Développement : Alexandra Zaïnal
Sur une idée originale de : Baudouin d'Aumeries
Assistance à la programmation : Marc-Olivier Méhu
Soutien technique & logistique : Manuel Goepfert

Contact : metmap@orbifly.com




SOURCES & CREDITS :

   NOAA       Earth
Advisory